createdAt,value
2023-02-22T00:00:43.730Z,5.40
2023-02-22T00:03:15.633Z,5.63
2023-02-22T00:05:47.316Z,7.78
2023-02-22T00:08:15.057Z,4.38
2023-02-22T00:10:41.808Z,3.90
2023-02-22T00:13:09.847Z,6.72
2023-02-22T00:15:36.632Z,6.38
2023-02-22T00:18:04.578Z,3.50
2023-02-22T00:20:31.557Z,4.07
2023-02-22T00:23:02.011Z,5.57
2023-02-22T00:25:28.718Z,6.15
2023-02-22T00:27:56.215Z,4.32
2023-02-22T00:30:26.679Z,5.57
2023-02-22T00:32:54.430Z,5.75
2023-02-22T00:35:21.903Z,3.35
2023-02-22T00:37:49.300Z,4.60
2023-02-22T00:40:18.521Z,3.70
2023-02-22T00:42:46.462Z,5.57
2023-02-22T00:45:14.288Z,4.70
2023-02-22T00:47:41.042Z,4.97
2023-02-22T00:50:08.116Z,3.55
2023-02-22T00:52:36.193Z,6.75
2023-02-22T00:55:06.043Z,3.95
2023-02-22T00:57:35.572Z,4.85
2023-02-22T01:00:11.961Z,3.70
2023-02-22T01:02:39.794Z,4.38
2023-02-22T01:05:07.788Z,4.07
2023-02-22T01:07:36.067Z,3.97
2023-02-22T01:10:03.086Z,4.25
2023-02-22T01:12:29.952Z,3.78
2023-02-22T01:14:57.030Z,4.03
2023-02-22T01:17:25.281Z,4.15
2023-02-22T01:19:53.947Z,5.63
2023-02-22T01:22:21.395Z,4.95
2023-02-22T01:24:49.078Z,4.60
2023-02-22T01:27:15.865Z,6.57
2023-02-22T01:29:42.633Z,3.45
2023-02-22T01:32:09.497Z,4.78
2023-02-22T01:34:37.665Z,4.63
2023-02-22T01:37:07.368Z,5.22
2023-02-22T01:39:34.135Z,4.28
2023-02-22T01:42:00.868Z,4.20
2023-02-22T01:44:37.210Z,4.13
2023-02-22T01:47:05.828Z,3.72
2023-02-22T01:49:34.275Z,4.10
2023-02-22T01:52:02.288Z,3.38
2023-02-22T01:54:31.469Z,4.45
2023-02-22T01:57:27.091Z,3.10
2023-02-22T02:00:11.671Z,4.40
2023-02-22T02:02:44.537Z,3.95
2023-02-22T02:05:11.359Z,4.43
2023-02-22T02:07:38.937Z,4.55
2023-02-22T02:10:14.539Z,3.85
2023-02-22T02:12:46.661Z,3.55
2023-02-22T02:15:18.373Z,3.00
2023-02-22T02:17:45.225Z,3.38
2023-02-22T02:20:28.217Z,4.22
2023-02-22T02:23:03.758Z,3.88
2023-02-22T02:26:04.006Z,3.95
2023-02-22T02:28:57.217Z,5.05
2023-02-22T02:31:42.805Z,4.72
2023-02-22T02:34:15.569Z,6.47
2023-02-22T02:36:47.632Z,4.07
2023-02-22T02:39:28.760Z,3.80
2023-02-22T02:41:55.470Z,3.50
2023-02-22T02:44:48.662Z,3.90
2023-02-22T02:47:19.597Z,5.22
2023-02-22T02:50:00.367Z,4.57
2023-02-22T02:52:27.258Z,4.80
2023-02-22T02:54:54.063Z,3.95
2023-02-22T02:57:20.837Z,3.72
2023-02-22T02:59:47.582Z,6.30
2023-02-22T03:02:34.219Z,3.65
2023-02-22T03:05:15.761Z,5.50
2023-02-22T03:08:01.267Z,4.85
2023-02-22T03:10:33.837Z,3.55
2023-02-22T03:13:14.278Z,5.97
2023-02-22T03:15:49.977Z,3.92
2023-02-22T03:18:29.216Z,4.53
2023-02-22T03:21:04.618Z,5.15
2023-02-22T03:23:35.715Z,2.72
2023-02-22T03:26:14.911Z,5.22
2023-02-22T03:28:43.314Z,4.10
2023-02-22T03:31:20.273Z,4.65
2023-02-22T03:33:55.364Z,3.58
2023-02-22T03:36:26.829Z,4.00
2023-02-22T03:38:56.622Z,3.78
2023-02-22T03:41:25.269Z,4.65
2023-02-22T03:43:58.489Z,4.03
2023-02-22T03:46:25.282Z,5.70
2023-02-22T03:48:54.355Z,7.15
2023-02-22T03:51:21.527Z,4.97
2023-02-22T03:53:48.421Z,4.60
2023-02-22T03:56:28.014Z,5.28
2023-02-22T03:58:54.812Z,5.53
2023-02-22T04:01:23.729Z,4.07
2023-02-22T04:03:50.518Z,3.90
2023-02-22T04:06:17.244Z,4.10
2023-02-22T04:08:44.898Z,3.83
2023-02-22T04:11:11.689Z,3.30
2023-02-22T04:13:38.456Z,3.97
2023-02-22T04:16:05.489Z,4.18
2023-02-22T04:18:32.248Z,3.28
2023-02-22T04:20:58.969Z,3.65
2023-02-22T04:23:26.944Z,3.67
2023-02-22T04:25:53.672Z,5.80
2023-02-22T04:28:20.494Z,4.43
2023-02-22T04:30:47.283Z,4.10
2023-02-22T04:33:14.958Z,5.47
2023-02-22T04:35:41.661Z,3.72
2023-02-22T04:38:09.681Z,6.03
2023-02-22T04:40:36.403Z,4.93
2023-02-22T04:43:03.151Z,4.57
2023-02-22T04:45:29.972Z,3.58
2023-02-22T04:47:56.757Z,4.00
2023-02-22T04:50:23.520Z,5.82
2023-02-22T04:52:50.220Z,5.47
2023-02-22T04:55:18.072Z,3.97
2023-02-22T04:57:44.780Z,4.15
2023-02-22T05:00:16.889Z,5.82
2023-02-22T05:02:43.672Z,7.55
2023-02-22T05:05:11.170Z,5.28
2023-02-22T05:07:37.883Z,4.65
2023-02-22T05:10:04.886Z,4.07
2023-02-22T05:12:31.603Z,3.97
2023-02-22T05:14:58.326Z,4.80
2023-02-22T05:17:25.045Z,5.72
2023-02-22T05:19:51.781Z,5.18
2023-02-22T05:22:19.746Z,4.25
2023-02-22T05:24:46.715Z,6.05
2023-02-22T05:27:14.251Z,5.20
2023-02-22T05:29:41.412Z,3.70
2023-02-22T05:32:08.196Z,3.60
2023-02-22T05:34:35.063Z,7.35
2023-02-22T05:37:03.449Z,3.58
2023-02-22T05:39:30.620Z,6.40
2023-02-22T05:41:58.827Z,5.55
2023-02-22T05:44:25.647Z,5.85
2023-02-22T05:46:52.526Z,5.43
2023-02-22T05:49:20.465Z,3.47
2023-02-22T05:51:48.063Z,5.53
2023-02-22T05:54:15.039Z,7.07
2023-02-22T05:56:41.813Z,5.40
2023-02-22T05:59:08.574Z,10.05
2023-02-22T06:01:35.404Z,8.38
2023-02-22T06:04:02.200Z,6.70
2023-02-22T06:06:28.919Z,7.95
2023-02-22T06:08:55.651Z,6.40
2023-02-22T06:11:22.391Z,7.55
2023-02-22T06:13:52.549Z,5.57
2023-02-22T06:16:21.247Z,8.43
2023-02-22T06:18:49.626Z,5.18
2023-02-22T06:21:18.799Z,6.07
2023-02-22T06:23:45.665Z,9.63
2023-02-22T06:26:12.406Z,5.43
2023-02-22T06:28:39.133Z,6.10
2023-02-22T06:31:06.011Z,3.92
2023-02-22T06:33:32.758Z,6.45
2023-02-22T06:35:59.493Z,7.93
2023-02-22T06:38:27.700Z,5.80
2023-02-22T06:40:55.333Z,4.25
2023-02-22T06:43:24.285Z,7.35
2023-02-22T06:45:51.659Z,6.75
2023-02-22T06:48:19.435Z,6.40
2023-02-22T06:50:46.173Z,6.15
2023-02-22T06:53:12.969Z,6.40
2023-02-22T06:55:39.728Z,9.18
2023-02-22T06:58:06.538Z,4.85
2023-02-22T07:00:33.680Z,5.15
2023-02-22T07:03:00.876Z,6.07
2023-02-22T07:05:28.253Z,6.65
2023-02-22T07:07:55.928Z,6.55
2023-02-22T07:10:26.589Z,5.22
2023-02-22T07:12:53.799Z,6.30
2023-02-22T07:15:24.008Z,7.63
2023-02-22T07:17:51.798Z,7.75
2023-02-22T07:20:20.899Z,6.35
2023-02-22T07:22:50.318Z,7.07
2023-02-22T07:25:18.712Z,10.65
2023-02-22T07:27:46.316Z,7.30
2023-02-22T07:30:26.560Z,7.93
2023-02-22T07:32:54.716Z,4.78
2023-02-22T07:35:38.153Z,10.93
2023-02-22T07:38:06.282Z,7.28
2023-02-22T07:40:32.992Z,8.20
2023-02-22T07:43:23.818Z,13.40
2023-02-22T07:45:51.769Z,6.50
2023-02-22T07:48:20.495Z,6.40
2023-02-22T07:50:47.467Z,7.05
2023-02-22T07:53:28.467Z,6.43
2023-02-22T07:55:56.404Z,5.45
2023-02-22T07:58:24.069Z,5.95
2023-02-22T08:00:50.914Z,6.40
2023-02-22T08:03:20.490Z,10.70
2023-02-22T08:05:51.474Z,6.10
2023-02-22T08:08:19.944Z,6.65
2023-02-22T08:10:47.383Z,4.45
2023-02-22T08:13:14.719Z,5.95
2023-02-22T08:15:41.824Z,6.68
2023-02-22T08:18:10.268Z,5.93
2023-02-22T08:20:37.661Z,5.78
2023-02-22T08:23:05.119Z,4.55
2023-02-22T08:25:31.935Z,5.90
2023-02-22T08:28:03.180Z,4.72
2023-02-22T08:30:31.103Z,7.22
2023-02-22T08:32:58.396Z,8.10
2023-02-22T08:35:25.428Z,4.95
2023-02-22T08:37:54.210Z,5.78
2023-02-22T08:40:23.195Z,4.82
2023-02-22T08:42:50.734Z,7.95
2023-02-22T08:45:18.465Z,6.40
2023-02-22T08:47:46.217Z,5.70
2023-02-22T08:50:27.524Z,5.40
2023-02-22T08:52:56.659Z,6.75
2023-02-22T08:55:24.000Z,6.40
2023-02-22T08:57:50.784Z,6.15
2023-02-22T09:00:21.311Z,5.68
2023-02-22T09:02:48.360Z,3.38
2023-02-22T09:05:17.053Z,4.20
2023-02-22T09:07:44.434Z,9.43
2023-02-22T09:10:16.053Z,4.78
2023-02-22T09:12:43.029Z,6.82
2023-02-22T09:15:10.164Z,7.07
2023-02-22T09:17:37.468Z,3.83
2023-02-22T09:20:05.517Z,4.00
2023-02-22T09:22:34.790Z,5.25
2023-02-22T09:25:11.427Z,4.53
2023-02-22T09:27:43.689Z,6.15
2023-02-22T09:30:18.441Z,4.78
2023-02-22T09:32:45.531Z,4.20
2023-02-22T09:35:13.035Z,4.78
2023-02-22T09:37:39.835Z,4.00
2023-02-22T09:40:09.943Z,6.80
2023-02-22T09:42:41.888Z,4.35
2023-02-22T09:45:16.972Z,5.80
2023-02-22T09:47:56.928Z,4.65
2023-02-22T09:50:30.713Z,4.15
2023-02-22T09:53:01.075Z,3.45
2023-02-22T09:55:35.060Z,4.13
2023-02-22T09:58:04.085Z,3.60
2023-02-22T10:00:36.467Z,4.28
2023-02-22T10:03:16.444Z,5.85
2023-02-22T10:05:46.400Z,3.70
2023-02-22T10:08:19.766Z,4.05
2023-02-22T10:10:52.556Z,3.95
2023-02-22T10:13:29.072Z,4.07
2023-02-22T10:16:20.937Z,3.83
2023-02-22T10:18:55.208Z,4.28
2023-02-22T10:21:46.262Z,4.32
2023-02-22T10:24:38.422Z,5.15
2023-02-22T10:27:13.581Z,4.60
2023-02-22T10:29:50.242Z,4.18
2023-02-22T10:32:19.968Z,4.97
2023-02-22T10:34:49.580Z,3.90
2023-02-22T10:37:27.385Z,4.53
2023-02-22T10:40:06.245Z,3.78
2023-02-22T10:42:33.015Z,2.85
2023-02-22T10:45:00.223Z,4.35
2023-02-22T10:47:27.162Z,4.28
2023-02-22T10:49:56.445Z,5.28
2023-02-22T10:52:26.102Z,3.33
2023-02-22T10:54:58.813Z,4.25
2023-02-22T10:57:32.411Z,5.10
2023-02-22T11:00:13.957Z,3.80
2023-02-22T11:02:41.756Z,4.50
2023-02-22T11:05:25.810Z,6.40
2023-02-22T11:07:54.715Z,6.32
2023-02-22T11:10:31.484Z,5.60
2023-02-22T11:12:58.520Z,4.88
2023-02-22T11:15:29.850Z,4.35
2023-02-22T11:17:57.792Z,5.40
2023-02-22T11:20:29.493Z,5.68
2023-02-22T11:22:58.183Z,5.72
2023-02-22T11:25:26.693Z,5.28
2023-02-22T11:27:54.052Z,3.70
2023-02-22T11:30:31.374Z,7.45
2023-02-22T11:32:59.127Z,7.22
2023-02-22T11:35:28.920Z,4.57
2023-02-22T11:38:31.570Z,3.83
2023-02-22T11:41:19.761Z,4.32
2023-02-22T11:43:48.879Z,5.78
2023-02-22T11:46:22.079Z,5.68
2023-02-22T11:49:04.553Z,6.35
2023-02-22T11:51:55.926Z,7.35
2023-02-22T11:54:31.193Z,4.82
2023-02-22T11:57:22.218Z,4.47
2023-02-22T11:59:56.843Z,4.47
2023-02-22T12:02:56.344Z,4.75
2023-02-22T12:05:26.600Z,3.65
2023-02-22T12:08:19.212Z,3.72
2023-02-22T12:11:34.612Z,4.65
2023-02-22T12:14:13.311Z,4.05
2023-02-22T12:16:49.398Z,4.82
2023-02-22T12:19:39.506Z,4.68
2023-02-22T12:22:10.424Z,4.65
2023-02-22T12:24:46.195Z,4.03
2023-02-22T12:27:28.193Z,5.68
2023-02-22T12:30:07.085Z,3.75
2023-02-22T12:32:38.152Z,4.20
2023-02-22T12:35:30.073Z,3.83
2023-02-22T12:38:01.952Z,3.92
2023-02-22T12:40:58.220Z,6.32
2023-02-22T12:43:28.812Z,4.82
2023-02-22T12:46:11.061Z,4.55
2023-02-22T12:48:54.868Z,3.90
2023-02-22T12:51:41.231Z,5.78
2023-02-22T12:54:16.422Z,8.05
2023-02-22T12:56:57.893Z,8.65
2023-02-22T12:59:38.154Z,4.55
2023-02-22T13:02:16.156Z,3.75
2023-02-22T13:04:42.856Z,11.05
2023-02-22T13:07:18.187Z,7.65
2023-02-22T13:10:03.434Z,5.38
2023-02-22T13:13:04.872Z,6.88
2023-02-22T13:15:51.666Z,4.75
2023-02-22T13:18:31.440Z,3.92
2023-02-22T13:21:23.726Z,4.25
2023-02-22T13:24:31.116Z,3.67
2023-02-22T13:27:00.777Z,4.22
2023-02-22T13:29:37.005Z,4.15
2023-02-22T13:32:24.950Z,3.92
2023-02-22T13:35:19.421Z,3.78
2023-02-22T13:38:16.187Z,4.72
2023-02-22T13:41:01.410Z,3.72
2023-02-22T13:44:05.892Z,3.80
2023-02-22T13:46:47.228Z,4.32
2023-02-22T13:49:16.823Z,3.08
2023-02-22T13:51:54.430Z,5.15
2023-02-22T13:54:51.694Z,4.65
2023-02-22T13:57:19.662Z,5.72
2023-02-22T13:59:47.343Z,5.32
2023-02-22T14:03:08.142Z,4.60
2023-02-22T14:05:46.733Z,4.93
2023-02-22T14:08:19.732Z,3.78
2023-02-22T14:10:47.704Z,7.13
2023-02-22T14:13:17.121Z,13.70
2023-02-22T14:16:05.051Z,8.98
2023-02-22T14:18:42.512Z,7.90
2023-02-22T14:21:14.122Z,12.63
2023-02-22T14:23:42.172Z,9.70
2023-02-22T14:26:20.761Z,12.82
2023-02-22T14:29:01.551Z,8.10
2023-02-22T14:31:37.656Z,6.80
2023-02-22T14:34:09.534Z,8.27
2023-02-22T14:36:55.893Z,5.97
2023-02-22T14:39:35.108Z,7.20
2023-02-22T14:42:12.553Z,9.60
2023-02-22T14:44:44.724Z,10.75
2023-02-22T14:47:16.600Z,8.07
2023-02-22T14:49:44.167Z,6.53
2023-02-22T14:52:19.330Z,7.95
2023-02-22T14:54:59.725Z,10.57
2023-02-22T14:57:48.480Z,6.30
2023-02-22T15:00:31.249Z,9.10
2023-02-22T15:03:00.049Z,8.63
2023-02-22T15:05:30.398Z,10.55
2023-02-22T15:08:02.441Z,13.82
2023-02-22T15:10:43.436Z,9.38
2023-02-22T15:13:25.737Z,11.85
2023-02-22T15:15:55.991Z,8.75
2023-02-22T15:18:27.154Z,10.95
2023-02-22T15:20:59.477Z,7.78
2023-02-22T15:23:30.350Z,11.60
2023-02-22T15:25:58.018Z,6.07
2023-02-22T15:28:28.169Z,10.15
2023-02-22T15:31:18.980Z,6.82
2023-02-22T15:33:47.043Z,9.25
2023-02-22T15:36:16.033Z,8.43
2023-02-22T15:38:47.777Z,6.72
2023-02-22T15:41:21.537Z,6.10
2023-02-22T15:44:21.329Z,6.53
2023-02-22T15:46:49.824Z,6.15
2023-02-22T15:49:16.514Z,4.90
2023-02-22T15:51:46.385Z,7.72
2023-02-22T15:54:26.575Z,5.07
2023-02-22T15:56:57.619Z,9.57
2023-02-22T15:59:29.523Z,7.35
2023-02-22T16:01:57.278Z,5.00
2023-02-22T16:04:27.204Z,7.20
2023-02-22T16:07:02.397Z,7.07
2023-02-22T16:09:30.388Z,5.78
2023-02-22T16:12:21.873Z,4.78
2023-02-22T16:14:48.976Z,8.93
2023-02-22T16:17:31.031Z,9.63
2023-02-22T16:20:02.568Z,6.53
2023-02-22T16:22:33.904Z,7.75
2023-02-22T16:25:27.520Z,6.47
2023-02-22T16:27:58.482Z,6.28
2023-02-22T16:30:33.717Z,7.07
2023-02-22T16:33:02.651Z,8.27
2023-02-22T16:35:29.703Z,4.88
2023-02-22T16:38:00.959Z,8.43
2023-02-22T16:40:35.829Z,5.63
2023-02-22T16:43:11.830Z,5.55
2023-02-22T16:45:40.666Z,7.85
2023-02-22T16:48:22.950Z,5.82
2023-02-22T16:50:51.517Z,6.93
2023-02-22T16:53:20.061Z,11.15
2023-02-22T16:55:50.758Z,10.38
2023-02-22T16:58:18.066Z,6.75
2023-02-22T17:00:44.986Z,7.78
2023-02-22T17:03:15.974Z,9.30
2023-02-22T17:05:43.017Z,8.80
2023-02-22T17:08:09.844Z,6.15
2023-02-22T17:10:36.861Z,6.82
2023-02-22T17:13:12.929Z,7.43
2023-02-22T17:15:47.040Z,8.57
2023-02-22T17:18:16.302Z,8.27
2023-02-22T17:20:44.923Z,9.95
2023-02-22T17:23:12.315Z,13.98
2023-02-22T17:25:41.072Z,30.08
2023-02-22T17:28:07.976Z,17.10
2023-02-22T17:30:35.962Z,12.35
2023-02-22T17:33:04.197Z,9.57
2023-02-22T17:35:37.036Z,10.48
2023-02-22T17:38:06.228Z,12.15
2023-02-22T17:40:38.000Z,10.88
2023-02-22T17:43:05.726Z,12.40
2023-02-22T17:45:32.464Z,15.05
2023-02-22T17:47:59.649Z,18.25
2023-02-22T17:50:28.558Z,22.52
2023-02-22T17:52:55.557Z,12.98
2023-02-22T17:55:23.884Z,9.02
2023-02-22T17:57:59.013Z,6.97
2023-02-22T18:00:34.753Z,12.80
2023-02-22T18:03:03.540Z,12.45
2023-02-22T18:05:30.424Z,12.55
2023-02-22T18:07:58.666Z,14.30
2023-02-22T18:10:27.100Z,11.40
2023-02-22T18:12:55.082Z,14.43
2023-02-22T18:15:21.823Z,11.25
2023-02-22T18:17:48.663Z,10.82
2023-02-22T18:20:16.345Z,17.08
2023-02-22T18:22:43.574Z,16.58
2023-02-22T18:25:11.140Z,12.07
2023-02-22T18:27:38.046Z,20.27
2023-02-22T18:30:05.554Z,21.75
2023-02-22T18:32:32.504Z,17.55
2023-02-22T18:34:59.320Z,13.48
2023-02-22T18:37:28.729Z,13.60
2023-02-22T18:39:56.446Z,24.65
2023-02-22T18:42:23.987Z,16.20
2023-02-22T18:44:51.312Z,18.92
2023-02-22T18:47:18.697Z,14.80
2023-02-22T18:49:45.824Z,19.15
2023-02-22T18:52:12.795Z,13.00
2023-02-22T18:54:45.795Z,14.60
2023-02-22T18:57:12.667Z,18.35
2023-02-22T18:59:40.280Z,15.60
2023-02-22T19:02:20.230Z,16.02
2023-02-22T19:04:47.813Z,13.13
2023-02-22T19:07:18.083Z,18.02
2023-02-22T19:09:45.103Z,16.17
2023-02-22T19:12:11.946Z,11.27
2023-02-22T19:14:38.751Z,15.30
2023-02-22T19:17:07.560Z,18.77
2023-02-22T19:19:34.822Z,12.43
2023-02-22T19:22:01.728Z,12.10
2023-02-22T19:24:28.964Z,13.23
2023-02-22T19:27:00.068Z,14.55
2023-02-22T19:29:28.688Z,11.75
2023-02-22T19:31:55.539Z,7.28
2023-02-22T19:34:24.458Z,15.27
2023-02-22T19:36:51.591Z,12.57
2023-02-22T19:39:20.271Z,7.82
2023-02-22T19:41:47.139Z,16.30
2023-02-22T19:44:14.160Z,15.30
2023-02-22T19:46:41.483Z,13.98
2023-02-22T19:49:08.404Z,17.05
2023-02-22T19:51:36.175Z,11.15
2023-02-22T19:54:04.355Z,10.52
2023-02-22T19:56:31.457Z,11.00
2023-02-22T19:59:02.252Z,8.65
2023-02-22T20:01:33.517Z,11.18
2023-02-22T20:04:03.944Z,8.07
2023-02-22T20:06:41.852Z,8.82
2023-02-22T20:09:11.431Z,8.38
2023-02-22T20:11:38.427Z,5.78
2023-02-22T20:14:08.445Z,7.80
2023-02-22T20:16:35.270Z,13.65
2023-02-22T20:19:02.111Z,13.18
2023-02-22T20:21:32.173Z,13.13
2023-02-22T20:24:00.460Z,9.07
2023-02-22T20:26:29.996Z,8.40
2023-02-22T20:28:57.026Z,9.35
2023-02-22T20:31:23.935Z,11.07
2023-02-22T20:33:54.329Z,9.10
2023-02-22T20:36:24.152Z,16.85
2023-02-22T20:38:54.638Z,11.98
2023-02-22T20:41:25.885Z,8.05
2023-02-22T20:43:53.296Z,10.90
2023-02-22T20:46:20.012Z,10.85
2023-02-22T20:48:46.754Z,9.35
2023-02-22T20:51:14.793Z,8.63
2023-02-22T20:53:42.073Z,8.68
2023-02-22T20:56:13.462Z,11.65
2023-02-22T20:58:40.270Z,9.38
2023-02-22T21:01:08.331Z,9.77
2023-02-22T21:03:35.467Z,9.88
2023-02-22T21:06:06.122Z,10.60
2023-02-22T21:08:33.002Z,10.48
2023-02-22T21:11:01.114Z,10.32
2023-02-22T21:13:27.843Z,10.40
2023-02-22T21:15:54.605Z,7.38
2023-02-22T21:18:22.986Z,7.93
2023-02-22T21:20:51.466Z,8.23
2023-02-22T21:23:18.200Z,8.80
2023-02-22T21:25:51.961Z,7.65
2023-02-22T21:28:18.725Z,7.20
2023-02-22T21:30:46.179Z,10.63
2023-02-22T21:33:14.903Z,6.25
2023-02-22T21:35:43.074Z,9.77
2023-02-22T21:38:14.389Z,7.43
2023-02-22T21:40:55.525Z,8.65
2023-02-22T21:43:25.072Z,5.35
2023-02-22T21:45:51.832Z,10.50
2023-02-22T21:48:18.580Z,6.50
2023-02-22T21:50:45.347Z,4.95
2023-02-22T21:53:12.779Z,7.40
2023-02-22T21:55:40.824Z,4.60
2023-02-22T21:58:09.507Z,5.80
2023-02-22T22:00:42.502Z,7.18
2023-02-22T22:03:20.283Z,5.35
2023-02-22T22:05:48.054Z,6.78
2023-02-22T22:08:21.772Z,4.78
2023-02-22T22:10:55.220Z,6.93
2023-02-22T22:13:22.697Z,4.57
2023-02-22T22:15:49.745Z,7.60
2023-02-22T22:18:16.495Z,4.28
2023-02-22T22:20:44.922Z,5.22
2023-02-22T22:23:12.468Z,3.90
2023-02-22T22:25:39.193Z,4.07
2023-02-22T22:28:09.301Z,6.25
2023-02-22T22:30:37.114Z,4.60
2023-02-22T22:33:14.821Z,4.05
2023-02-22T22:35:41.973Z,8.00
2023-02-22T22:38:09.499Z,4.50
2023-02-22T22:40:38.857Z,7.43
2023-02-22T22:43:06.145Z,5.53
2023-02-22T22:45:33.144Z,5.05
2023-02-22T22:47:59.871Z,6.65
2023-02-22T22:50:26.602Z,4.50
2023-02-22T22:52:55.633Z,4.38
2023-02-22T22:55:24.289Z,5.30
2023-02-22T22:57:51.946Z,4.93
2023-02-22T23:00:47.867Z,4.45
2023-02-22T23:03:16.788Z,3.80
2023-02-22T23:05:43.607Z,3.55
2023-02-22T23:08:11.047Z,3.92
2023-02-22T23:10:40.979Z,4.28
2023-02-22T23:13:12.732Z,4.65
2023-02-22T23:15:43.151Z,4.72
2023-02-22T23:18:09.952Z,3.72
2023-02-22T23:20:39.026Z,6.53
2023-02-22T23:23:07.272Z,4.78
2023-02-22T23:25:34.644Z,5.57
2023-02-22T23:28:02.951Z,4.32
2023-02-22T23:30:30.654Z,4.25
2023-02-22T23:32:57.468Z,4.50
2023-02-22T23:35:24.273Z,3.45
2023-02-22T23:37:53.446Z,4.78
2023-02-22T23:40:20.231Z,4.03
2023-02-22T23:42:49.000Z,6.40
2023-02-22T23:45:22.706Z,4.57
2023-02-22T23:47:56.780Z,7.00
2023-02-22T23:50:27.264Z,2.83
2023-02-22T23:52:58.289Z,4.53
2023-02-22T23:55:26.182Z,3.78
2023-02-22T23:57:59.184Z,4.03
